Tjukalinsk, Russia
Current Conditions -  °F | °C
As of 6:00 PM on Monday 24 Nov 2014 (Local Time) from UNOO Reporting Station
Clear Clear  
Wind Chill: -38°   Ceiling: Unl
Heat Index: -18°   Visibility: 6mi
Dew Point: -24°   Wind: 9mph
Humidity: 76%   Direction: 240°WSW
Pressure: 30.3"   Gusts: NA
Location:  55.87°N, 72.2°E
Report Text: UNOO 241200Z 24004MPS CAVOK M28/M31 Q1026 25421045 NOSIG RMKQFE761
Loading
Personal Weather Stations






























Interactive Weather Map New forecast layout! Learn more

10-Day Weather Forecast

Advertisements
Track Severe Weather on mobile